createdAt,value
2019-01-27T00:01:37.041Z,100.00
2019-01-27T00:04:07.701Z,100.00
2019-01-27T00:06:38.728Z,100.00
2019-01-27T00:09:12.650Z,100.00
2019-01-27T00:11:43.702Z,100.00
2019-01-27T00:14:15.198Z,100.00
2019-01-27T00:16:46.002Z,100.00
2019-01-27T00:19:16.910Z,100.00
2019-01-27T00:21:47.474Z,100.00
2019-01-27T00:24:18.514Z,100.00
2019-01-27T00:26:49.546Z,100.00
2019-01-27T00:29:20.239Z,99.84
2019-01-27T00:31:50.953Z,100.00
2019-01-27T00:34:21.693Z,100.00
2019-01-27T00:36:52.122Z,100.00
2019-01-27T00:39:22.860Z,100.00
2019-01-27T00:41:53.358Z,100.00
2019-01-27T00:44:23.787Z,100.00
2019-01-27T00:46:54.490Z,100.00
2019-01-27T00:49:25.204Z,100.00
2019-01-27T00:51:55.621Z,100.00
2019-01-27T00:54:26.097Z,100.00
2019-01-27T00:56:56.833Z,100.00
2019-01-27T00:59:27.252Z,100.00
2019-01-27T01:01:58.006Z,100.00
2019-01-27T01:04:28.448Z,100.00
2019-01-27T01:06:58.881Z,100.00
2019-01-27T01:09:29.307Z,100.00
2019-01-27T01:12:00.021Z,100.00
2019-01-27T01:14:32.774Z,100.00
2019-01-27T01:17:03.999Z,100.00
2019-01-27T01:19:36.323Z,100.00
2019-01-27T01:22:08.467Z,100.00
2019-01-27T01:24:44.417Z,100.00
2019-01-27T01:27:22.453Z,100.00
2019-01-27T01:29:54.491Z,100.00
2019-01-27T01:32:26.876Z,100.00
2019-01-27T01:34:57.364Z,100.00
2019-01-27T01:37:27.847Z,100.00
2019-01-27T01:39:58.282Z,100.00
2019-01-27T01:42:28.740Z,100.00
2019-01-27T01:44:59.165Z,100.00
2019-01-27T01:47:29.722Z,100.00
2019-01-27T01:50:00.259Z,100.00
2019-01-27T01:52:30.620Z,100.00
2019-01-27T01:55:01.091Z,100.00
2019-01-27T01:57:31.588Z,100.00
2019-01-27T02:00:02.072Z,100.00
2019-01-27T02:02:32.497Z,100.00
2019-01-27T02:05:03.596Z,100.00
2019-01-27T02:07:34.316Z,100.00
2019-01-27T02:10:05.983Z,100.00
2019-01-27T02:12:36.720Z,100.00
2019-01-27T02:15:16.922Z,100.00
2019-01-27T02:17:47.343Z,100.00
2019-01-27T02:20:17.803Z,100.00
2019-01-27T02:22:48.267Z,100.00
2019-01-27T02:25:18.723Z,100.00
2019-01-27T02:27:49.195Z,100.00
2019-01-27T02:30:21.275Z,100.00
2019-01-27T02:32:51.949Z,100.00
2019-01-27T02:35:22.493Z,100.00
2019-01-27T02:37:53.244Z,100.00
2019-01-27T02:40:23.695Z,100.00
2019-01-27T02:42:54.315Z,100.00
2019-01-27T02:45:24.935Z,100.00
2019-01-27T02:47:55.611Z,100.00
2019-01-27T02:50:26.061Z,100.00
2019-01-27T02:52:56.559Z,100.00
2019-01-27T02:55:27.340Z,100.00
2019-01-27T02:57:57.811Z,100.00
2019-01-27T03:00:28.266Z,100.00
2019-01-27T03:02:59.731Z,100.00
2019-01-27T03:05:49.085Z,100.00
2019-01-27T03:08:19.864Z,100.00
2019-01-27T03:10:50.584Z,100.00
2019-01-27T03:13:21.337Z,100.00
2019-01-27T03:15:52.059Z,100.00
2019-01-27T03:18:22.737Z,100.00
2019-01-27T03:20:53.357Z,100.00
2019-01-27T03:23:23.732Z,100.00
2019-01-27T03:25:54.157Z,100.00
2019-01-27T03:28:24.615Z,100.00
2019-01-27T03:30:55.034Z,100.00
2019-01-27T03:33:25.466Z,100.00
2019-01-27T03:35:56.426Z,100.00
2019-01-27T03:38:26.911Z,100.00
2019-01-27T03:40:57.435Z,100.00
2019-01-27T03:43:27.974Z,100.00
2019-01-27T03:45:58.322Z,100.00
2019-01-27T03:48:29.369Z,100.00
2019-01-27T03:50:59.841Z,100.00
2019-01-27T03:53:30.331Z,100.00
2019-01-27T03:56:00.789Z,100.00
2019-01-27T03:58:31.267Z,100.00
2019-01-27T04:01:01.703Z,100.00
2019-01-27T04:03:32.141Z,100.00
2019-01-27T04:06:02.696Z,100.00
2019-01-27T04:08:33.127Z,100.00
2019-01-27T04:11:03.840Z,100.00
2019-01-27T04:13:34.359Z,100.00
2019-01-27T04:16:05.183Z,100.00
2019-01-27T04:18:35.726Z,100.00
2019-01-27T04:21:06.187Z,100.00
2019-01-27T04:23:37.027Z,100.00
2019-01-27T04:26:07.548Z,100.00
2019-01-27T04:28:38.273Z,100.00
2019-01-27T04:31:08.719Z,100.00
2019-01-27T04:33:39.158Z,100.00
2019-01-27T04:36:09.639Z,100.00
2019-01-27T04:38:40.275Z,100.00
2019-01-27T04:41:10.697Z,100.00
2019-01-27T04:43:41.069Z,100.00
2019-01-27T04:46:11.502Z,100.00
2019-01-27T04:48:41.965Z,100.00
2019-01-27T04:51:12.443Z,100.00
2019-01-27T04:53:42.885Z,100.00
2019-01-27T04:56:13.393Z,100.00
2019-01-27T04:58:44.118Z,100.00
2019-01-27T05:01:14.848Z,100.00
2019-01-27T05:03:53.196Z,100.00
2019-01-27T05:06:23.712Z,100.00
2019-01-27T05:08:54.134Z,100.00
2019-01-27T05:11:24.654Z,100.00
2019-01-27T05:13:55.078Z,100.00
2019-01-27T05:16:25.798Z,100.00
2019-01-27T05:18:56.250Z,100.00
2019-01-27T05:21:26.745Z,100.00
2019-01-27T05:23:57.136Z,100.00
2019-01-27T05:26:27.619Z,100.00
2019-01-27T05:28:58.340Z,100.00
2019-01-27T05:31:28.701Z,100.00
2019-01-27T05:33:59.158Z,100.00
2019-01-27T05:36:29.772Z,100.00
2019-01-27T05:39:00.204Z,100.00
2019-01-27T05:41:30.818Z,100.00
2019-01-27T05:44:01.252Z,100.00
2019-01-27T05:46:31.680Z,100.00
2019-01-27T05:49:02.177Z,100.00
2019-01-27T05:51:32.601Z,100.00
2019-01-27T05:54:03.043Z,100.00
2019-01-27T05:56:33.529Z,100.00
2019-01-27T05:59:04.016Z,100.00
2019-01-27T06:01:34.430Z,100.00
2019-01-27T06:04:04.884Z,100.00
2019-01-27T06:06:35.304Z,100.00
2019-01-27T06:09:09.014Z,100.00
2019-01-27T06:11:39.735Z,100.00
2019-01-27T06:14:10.104Z,100.00
2019-01-27T06:16:40.818Z,100.00
2019-01-27T06:19:11.535Z,100.00
2019-01-27T06:21:41.964Z,100.00
2019-01-27T06:24:12.670Z,100.00
2019-01-27T06:26:43.030Z,100.00
2019-01-27T06:29:13.477Z,100.00
2019-01-27T06:31:44.213Z,100.00
2019-01-27T06:34:16.857Z,100.00
2019-01-27T06:36:47.388Z,100.00
2019-01-27T06:39:18.152Z,100.00
2019-01-27T06:41:48.607Z,100.00
2019-01-27T06:44:19.300Z,100.00
2019-01-27T06:46:50.013Z,100.00
2019-01-27T06:49:20.381Z,100.00
2019-01-27T06:51:50.753Z,100.00
2019-01-27T06:54:21.312Z,100.00
2019-01-27T06:56:51.782Z,100.00
2019-01-27T06:59:38.913Z,100.00
2019-01-27T07:02:17.695Z,100.00
2019-01-27T07:05:05.689Z,100.00
2019-01-27T07:07:54.832Z,100.00
2019-01-27T07:10:42.893Z,100.00
2019-01-27T07:13:50.202Z,100.00
2019-01-27T07:16:34.027Z,100.00
2019-01-27T07:19:25.704Z,100.00
2019-01-27T07:22:32.728Z,100.00
2019-01-27T07:25:25.278Z,100.00
2019-01-27T07:28:17.571Z,100.00
2019-01-27T07:31:26.947Z,100.00
2019-01-27T07:34:15.246Z,100.00
2019-01-27T07:36:57.474Z,100.00
2019-01-27T07:39:46.547Z,100.00
2019-01-27T07:42:31.073Z,100.00
2019-01-27T07:45:18.754Z,100.00
2019-01-27T07:47:59.914Z,100.00
2019-01-27T07:50:47.835Z,100.00
2019-01-27T07:53:25.039Z,100.00
2019-01-27T07:56:06.633Z,100.00
2019-01-27T07:58:48.523Z,100.00
2019-01-27T08:01:33.573Z,100.00
2019-01-27T08:04:13.711Z,100.00
2019-01-27T08:07:00.733Z,100.00
2019-01-27T08:09:49.945Z,100.00
2019-01-27T08:12:46.471Z,100.00
2019-01-27T08:15:39.077Z,100.00
2019-01-27T08:18:27.364Z,100.00
2019-01-27T08:21:10.173Z,100.00
2019-01-27T08:24:11.505Z,100.00
2019-01-27T08:26:53.639Z,100.00
2019-01-27T08:29:38.090Z,100.00
2019-01-27T08:32:25.842Z,100.00
2019-01-27T08:35:09.786Z,100.00
2019-01-27T08:38:04.836Z,100.00
2019-01-27T08:40:54.199Z,100.00
2019-01-27T08:43:39.333Z,100.00
2019-01-27T08:46:19.506Z,100.00
2019-01-27T08:48:49.934Z,100.00
2019-01-27T08:51:20.374Z,100.00
2019-01-27T08:53:51.130Z,100.00
2019-01-27T08:56:21.870Z,100.00
2019-01-27T08:58:52.680Z,100.00
2019-01-27T09:01:40.495Z,100.00
2019-01-27T09:04:16.457Z,100.00
2019-01-27T09:06:53.228Z,100.00
2019-01-27T09:09:45.897Z,100.00
2019-01-27T09:12:34.565Z,99.82
2019-01-27T09:15:23.414Z,99.17
2019-01-27T09:18:18.650Z,98.17
2019-01-27T09:21:00.894Z,97.95
2019-01-27T09:24:05.277Z,98.04
2019-01-27T09:26:48.611Z,98.40
2019-01-27T09:29:40.757Z,97.34
2019-01-27T09:32:32.879Z,96.88
2019-01-27T09:35:25.723Z,96.93
2019-01-27T09:38:16.314Z,96.61
2019-01-27T09:41:11.102Z,96.97
2019-01-27T09:44:00.414Z,96.11
2019-01-27T09:46:58.748Z,96.14
2019-01-27T09:49:53.818Z,96.29
2019-01-27T09:52:55.292Z,96.35
2019-01-27T09:55:50.476Z,96.79
2019-01-27T09:58:48.496Z,97.27
2019-01-27T10:01:30.529Z,98.19
2019-01-27T10:04:24.395Z,98.42
2019-01-27T10:07:03.371Z,98.86
2019-01-27T10:09:58.594Z,97.77
2019-01-27T10:12:43.918Z,97.72
2019-01-27T10:15:40.426Z,97.73
2019-01-27T10:18:22.053Z,98.57
2019-01-27T10:21:09.784Z,99.87
2019-01-27T10:23:53.638Z,99.72
2019-01-27T10:26:41.525Z,99.63
2019-01-27T10:29:25.258Z,99.14
2019-01-27T10:32:02.726Z,99.79
2019-01-27T10:34:43.321Z,100.00
2019-01-27T10:37:23.577Z,100.00
2019-01-27T10:40:13.263Z,100.00
2019-01-27T10:42:50.661Z,98.69
2019-01-27T10:45:55.538Z,100.00
2019-01-27T10:48:44.921Z,100.00
2019-01-27T10:51:23.885Z,100.00
2019-01-27T10:54:09.409Z,100.00
2019-01-27T10:57:01.656Z,100.00
2019-01-27T10:59:57.155Z,100.00
2019-01-27T11:02:46.508Z,100.00
2019-01-27T11:05:23.548Z,100.00
2019-01-27T11:08:15.805Z,100.00
2019-01-27T11:10:53.971Z,100.00
2019-01-27T11:13:48.893Z,100.00
2019-01-27T11:16:33.573Z,99.86
2019-01-27T11:19:22.861Z,99.91
2019-01-27T11:22:15.218Z,100.00
2019-01-27T11:25:16.534Z,99.40
2019-01-27T11:27:59.103Z,99.36
2019-01-27T11:30:54.096Z,96.53
2019-01-27T11:33:34.173Z,96.96
2019-01-27T11:36:22.628Z,96.84
2019-01-27T11:39:29.998Z,96.69
2019-01-27T11:42:21.892Z,97.68
2019-01-27T11:45:00.367Z,97.02
2019-01-27T11:47:48.126Z,98.50
2019-01-27T11:50:22.128Z,97.35
2019-01-27T11:52:55.695Z,99.23
2019-01-27T11:55:26.304Z,100.00
2019-01-27T11:57:56.754Z,100.00
2019-01-27T12:00:34.194Z,100.00
2019-01-27T12:03:04.921Z,100.00
2019-01-27T12:05:35.563Z,100.00
2019-01-27T12:08:06.041Z,100.00
2019-01-27T12:10:36.478Z,100.00
2019-01-27T12:13:07.156Z,100.00
2019-01-27T12:15:37.908Z,100.00
2019-01-27T12:18:08.354Z,100.00
2019-01-27T12:20:38.792Z,100.00
2019-01-27T12:23:09.342Z,100.00
2019-01-27T12:25:39.714Z,100.00
2019-01-27T12:28:10.155Z,100.00
2019-01-27T12:30:40.637Z,100.00
2019-01-27T12:33:11.107Z,100.00
2019-01-27T12:35:41.820Z,100.00
2019-01-27T12:38:12.283Z,100.00
2019-01-27T12:40:42.720Z,100.00
2019-01-27T12:43:13.469Z,100.00
2019-01-27T12:45:43.913Z,100.00
2019-01-27T12:48:14.410Z,100.00
2019-01-27T12:50:45.075Z,100.00
2019-01-27T12:53:15.773Z,100.00
2019-01-27T12:55:46.247Z,100.00
2019-01-27T12:58:16.619Z,100.00
2019-01-27T13:00:52.463Z,100.00
2019-01-27T13:03:22.975Z,100.00
2019-01-27T13:05:53.681Z,100.00
2019-01-27T13:08:24.067Z,100.00
2019-01-27T13:10:55.259Z,100.00
2019-01-27T13:13:25.698Z,100.00
2019-01-27T13:15:56.521Z,100.00
2019-01-27T13:18:26.937Z,100.00
2019-01-27T13:20:57.675Z,100.00
2019-01-27T13:23:28.125Z,100.00
2019-01-27T13:25:58.572Z,100.00
2019-01-27T13:28:29.032Z,100.00
2019-01-27T13:30:59.502Z,100.00
2019-01-27T13:33:29.953Z,100.00
2019-01-27T13:36:00.334Z,100.00
2019-01-27T13:38:30.843Z,100.00
2019-01-27T13:41:01.284Z,100.00
2019-01-27T13:43:31.833Z,100.00
2019-01-27T13:46:02.442Z,100.00
2019-01-27T13:48:32.965Z,100.00
2019-01-27T13:51:03.669Z,100.00
2019-01-27T13:53:34.192Z,100.00
2019-01-27T13:56:04.875Z,100.00
2019-01-27T13:58:35.723Z,100.00
2019-01-27T14:01:06.603Z,100.00
2019-01-27T14:03:37.401Z,100.00
2019-01-27T14:06:08.153Z,100.00
2019-01-27T14:08:38.604Z,100.00
2019-01-27T14:11:09.047Z,100.00
2019-01-27T14:13:39.742Z,100.00
2019-01-27T14:16:10.455Z,100.00
2019-01-27T14:18:40.901Z,100.00
2019-01-27T14:21:16.424Z,100.00
2019-01-27T14:23:43.609Z,100.00
2019-01-27T14:26:14.032Z,100.00
2019-01-27T14:28:44.455Z,100.00
2019-01-27T14:31:15.136Z,100.00
2019-01-27T14:33:45.425Z,100.00
2019-01-27T14:36:15.872Z,100.00
2019-01-27T14:38:46.335Z,100.00
2019-01-27T14:41:16.770Z,100.00
2019-01-27T14:43:47.224Z,100.00
2019-01-27T14:46:17.726Z,100.00
2019-01-27T14:48:48.406Z,100.00
2019-01-27T14:51:18.844Z,100.00
2019-01-27T14:53:49.343Z,100.00
2019-01-27T14:56:20.063Z,100.00
2019-01-27T14:58:50.778Z,100.00
2019-01-27T15:01:21.262Z,100.00
2019-01-27T15:03:52.252Z,100.00
2019-01-27T15:06:22.690Z,100.00
2019-01-27T15:08:53.216Z,100.00
2019-01-27T15:11:23.584Z,100.00
2019-01-27T15:13:54.271Z,100.00
2019-01-27T15:16:24.727Z,100.00
2019-01-27T15:18:55.183Z,100.00
2019-01-27T15:21:28.556Z,100.00
2019-01-27T15:23:59.251Z,100.00
2019-01-27T15:26:29.721Z,100.00
2019-01-27T15:29:00.293Z,100.00
2019-01-27T15:31:30.711Z,100.00
2019-01-27T15:34:01.378Z,100.00
2019-01-27T15:36:31.182Z,100.00
2019-01-27T15:39:01.742Z,100.00
2019-01-27T15:41:32.167Z,100.00
2019-01-27T15:44:02.874Z,100.00
2019-01-27T15:46:33.314Z,100.00
2019-01-27T15:49:03.852Z,100.00
2019-01-27T15:51:34.560Z,100.00
2019-01-27T15:54:05.141Z,100.00
2019-01-27T15:56:35.812Z,100.00
2019-01-27T15:59:06.271Z,100.00
2019-01-27T16:01:36.952Z,100.00
2019-01-27T16:04:07.663Z,100.00
2019-01-27T16:06:38.347Z,100.00
2019-01-27T16:09:09.979Z,100.00
2019-01-27T16:11:40.432Z,100.00
2019-01-27T16:14:10.958Z,100.00
2019-01-27T16:16:41.715Z,100.00
2019-01-27T16:19:12.246Z,100.00
2019-01-27T16:21:42.685Z,100.00
2019-01-27T16:24:24.395Z,100.00
2019-01-27T16:26:54.885Z,100.00
2019-01-27T16:29:46.310Z,100.00
2019-01-27T16:32:25.763Z,100.00
2019-01-27T16:35:00.257Z,100.00
2019-01-27T16:37:31.345Z,100.00
2019-01-27T16:40:02.088Z,100.00
2019-01-27T16:42:32.530Z,100.00
2019-01-27T16:45:03.225Z,100.00
2019-01-27T16:47:34.269Z,100.00
2019-01-27T16:50:06.879Z,100.00
2019-01-27T16:52:37.658Z,100.00
2019-01-27T16:55:11.426Z,100.00
2019-01-27T16:57:41.898Z,100.00
2019-01-27T17:00:21.078Z,100.00
2019-01-27T17:02:51.903Z,100.00
2019-01-27T17:05:22.588Z,100.00
2019-01-27T17:07:54.714Z,100.00
2019-01-27T17:10:25.969Z,100.00
2019-01-27T17:12:56.802Z,100.00
2019-01-27T17:15:27.417Z,100.00
2019-01-27T17:17:57.876Z,100.00
2019-01-27T17:20:28.566Z,100.00
2019-01-27T17:22:58.987Z,100.00
2019-01-27T17:25:29.464Z,100.00
2019-01-27T17:27:59.886Z,100.00
2019-01-27T17:30:30.793Z,100.00
2019-01-27T17:33:01.254Z,100.00
2019-01-27T17:35:31.718Z,100.00
2019-01-27T17:38:02.178Z,100.00
2019-01-27T17:40:32.988Z,100.00
2019-01-27T17:43:03.674Z,100.00
2019-01-27T17:45:34.384Z,100.00
2019-01-27T17:48:05.965Z,100.00
2019-01-27T17:50:36.422Z,100.00
2019-01-27T17:53:07.913Z,100.00
2019-01-27T17:55:45.108Z,100.00
2019-01-27T17:58:36.220Z,100.00
2019-01-27T18:01:38.152Z,100.00
2019-01-27T18:04:26.159Z,100.00
2019-01-27T18:07:19.636Z,100.00
2019-01-27T18:10:15.140Z,100.00
2019-01-27T18:13:22.936Z,100.00
2019-01-27T18:15:53.374Z,100.00
2019-01-27T18:18:24.218Z,100.00
2019-01-27T18:20:54.967Z,100.00
2019-01-27T18:23:25.456Z,100.00
2019-01-27T18:25:55.943Z,100.00
2019-01-27T18:28:26.487Z,100.00
2019-01-27T18:30:57.336Z,100.00
2019-01-27T18:33:28.108Z,100.00
2019-01-27T18:35:58.865Z,100.00
2019-01-27T18:38:29.389Z,100.00
2019-01-27T18:40:59.915Z,100.00
2019-01-27T18:43:30.376Z,100.00
2019-01-27T18:46:01.152Z,100.00
2019-01-27T18:48:31.783Z,100.00
2019-01-27T18:51:02.568Z,100.00
2019-01-27T18:53:52.182Z,100.00
2019-01-27T18:56:30.493Z,100.00
2019-01-27T18:59:14.043Z,100.00
2019-01-27T19:01:55.527Z,100.00
2019-01-27T19:04:46.738Z,100.00
2019-01-27T19:07:47.710Z,100.00
2019-01-27T19:10:26.989Z,100.00
2019-01-27T19:13:06.932Z,100.00
2019-01-27T19:15:54.857Z,100.00
2019-01-27T19:18:34.614Z,100.00
2019-01-27T19:21:33.391Z,100.00
2019-01-27T19:24:15.713Z,100.00
2019-01-27T19:27:10.613Z,100.00
2019-01-27T19:30:00.212Z,100.00
2019-01-27T19:32:48.569Z,100.00
2019-01-27T19:35:36.118Z,100.00
2019-01-27T19:38:23.363Z,100.00
2019-01-27T19:41:12.777Z,100.00
2019-01-27T19:44:11.073Z,100.00
2019-01-27T19:47:13.065Z,100.00
2019-01-27T19:49:53.847Z,100.00
2019-01-27T19:52:46.249Z,100.00
2019-01-27T19:55:41.637Z,100.00
2019-01-27T19:58:27.470Z,100.00
2019-01-27T20:01:19.476Z,100.00
2019-01-27T20:03:56.851Z,100.00
2019-01-27T20:06:44.966Z,100.00
2019-01-27T20:09:34.389Z,100.00
2019-01-27T20:12:15.087Z,100.00
2019-01-27T20:14:57.449Z,100.00
2019-01-27T20:17:47.073Z,100.00
2019-01-27T20:20:26.853Z,100.00
2019-01-27T20:23:16.226Z,100.00
2019-01-27T20:26:05.015Z,100.00
2019-01-27T20:29:06.758Z,100.00
2019-01-27T20:31:55.793Z,100.00
2019-01-27T20:34:38.892Z,100.00
2019-01-27T20:37:16.182Z,100.00
2019-01-27T20:40:10.848Z,100.00
2019-01-27T20:43:03.216Z,100.00
2019-01-27T20:45:53.327Z,100.00
2019-01-27T20:48:58.025Z,100.00
2019-01-27T20:51:40.528Z,100.00
2019-01-27T20:54:20.324Z,100.00
2019-01-27T20:57:06.645Z,100.00
2019-01-27T20:59:56.953Z,100.00
2019-01-27T21:02:48.831Z,100.00
2019-01-27T21:05:26.812Z,100.00
2019-01-27T21:08:10.989Z,100.00
2019-01-27T21:11:07.100Z,100.00
2019-01-27T21:13:52.968Z,100.00
2019-01-27T21:16:43.783Z,100.00
2019-01-27T21:19:18.446Z,100.00
2019-01-27T21:21:49.127Z,100.00
2019-01-27T21:24:20.713Z,100.00
2019-01-27T21:26:51.251Z,100.00
2019-01-27T21:29:21.961Z,100.00
2019-01-27T21:31:52.768Z,100.00
2019-01-27T21:34:23.601Z,100.00
2019-01-27T21:36:55.222Z,100.00
2019-01-27T21:39:27.988Z,100.00
2019-01-27T21:41:58.738Z,100.00
2019-01-27T21:44:29.683Z,100.00
2019-01-27T21:47:00.571Z,100.00
2019-01-27T21:49:31.519Z,100.00
2019-01-27T21:52:02.432Z,100.00
2019-01-27T21:54:33.043Z,100.00
2019-01-27T21:57:03.695Z,100.00
2019-01-27T21:59:34.590Z,100.00
2019-01-27T22:02:05.347Z,100.00
2019-01-27T22:04:36.331Z,100.00
2019-01-27T22:07:07.082Z,100.00
2019-01-27T22:09:37.699Z,100.00
2019-01-27T22:12:08.545Z,100.00
2019-01-27T22:14:39.392Z,100.00
2019-01-27T22:17:10.719Z,100.00
2019-01-27T22:19:41.507Z,100.00
2019-01-27T22:22:12.236Z,100.00
2019-01-27T22:24:42.979Z,100.00
2019-01-27T22:27:13.407Z,100.00
2019-01-27T22:29:43.862Z,100.00
2019-01-27T22:32:14.309Z,100.00
2019-01-27T22:34:44.800Z,100.00
2019-01-27T22:37:15.315Z,100.00
2019-01-27T22:39:46.024Z,100.00
2019-01-27T22:42:17.099Z,100.00
2019-01-27T22:44:47.836Z,100.00
2019-01-27T22:47:18.521Z,100.00
2019-01-27T22:49:49.257Z,100.00
2019-01-27T22:52:19.948Z,100.00
2019-01-27T22:54:50.980Z,100.00
2019-01-27T22:57:21.674Z,100.00
2019-01-27T22:59:52.116Z,100.00
2019-01-27T23:02:22.814Z,100.00
2019-01-27T23:04:53.574Z,100.00
2019-01-27T23:07:24.452Z,100.00
2019-01-27T23:09:55.178Z,100.00
2019-01-27T23:12:25.738Z,100.00
2019-01-27T23:14:56.201Z,100.00
2019-01-27T23:17:26.944Z,100.00
2019-01-27T23:19:57.713Z,100.00
2019-01-27T23:22:28.099Z,100.00
2019-01-27T23:24:58.529Z,100.00
2019-01-27T23:27:29.135Z,100.00
2019-01-27T23:29:59.591Z,100.00
2019-01-27T23:32:30.064Z,100.00
2019-01-27T23:35:00.777Z,100.00
2019-01-27T23:37:31.276Z,100.00
2019-01-27T23:40:02.037Z,100.00
2019-01-27T23:42:33.008Z,100.00
2019-01-27T23:45:04.454Z,100.00
2019-01-27T23:47:34.903Z,100.00
2019-01-27T23:50:05.888Z,100.00
2019-01-27T23:52:36.305Z,100.00
2019-01-27T23:55:07.056Z,100.00
2019-01-27T23:57:37.548Z,100.00
